x

Fripp Nearshore (frp 2) (41033) Weather Station

6:00am - Mon 6th Jul 2015 All times are EDT. -4 hours from GMT.

  • Wind
    11mph, 13mph gusts
  • Air Temp 77°f
  • Sea Pressure 1020.1mb
  • Fripp Nearshore (frp 2)
  • Fripp Nearshore (frp 2)

More Historic Weather Station data

Upgrade to MSW Pro to gain access to the past 30 days of data for over 8000 Wavebouys and Weather Stations around the globe.

Join Pro

Comparision Forecast

View Surf forecast
   
Mon 07/06 6:00am 11 13 mph 1020.1mb 77f
5:00am 16 18 mph 1019.8mb 78f
4:00am 13
mph
1019.6mb 78f
3:00am 13 16 mph 1019.9mb 78f
2:00am 11 13 mph 1020.1mb 79f
1:00am 9 11 mph 1020mb 79f
12:00am 11 13 mph 1019.4mb 80f
Sun 07/05 11:00pm 13 16 mph 1019.2mb 80f
10:00pm 9 11 mph 1018.8mb 79f
9:00pm 9 11 mph 1019.2mb 79f
8:00pm 16 18 mph 1020mb 78f
7:00pm 16 18 mph 1019.8mb 81f
6:00pm 18 20 mph 1019.6mb 82f
5:00pm 13 16 mph 1019.6mb 82f
4:00pm 13 16 mph 1019.3mb 82f
3:00pm 16 18 mph 1020mb 82f
2:00pm 11 13 mph 1020.6mb 82f
1:00pm 13 16 mph 1020.6mb 83f
12:00pm 13 16 mph 1021mb 82f
11:00am 9 11 mph 1021.1mb 82f
10:00am 11 13 mph 1021.1mb 82f
9:00am 11 13 mph 1021.1mb 82f
8:00am 9 13 mph 1020.6mb 81f
7:00am 13 18 mph 1020.3mb 80f
6:00am 16 18 mph 1019.8mb 81f
5:00am 16 18 mph 1019.3mb 80f
4:00am 13 18 mph 1018.9mb 81f
3:00am 16 18 mph 1018.9mb 80f
2:00am 16 18 mph 1018.8mb 80f
1:00am 13 16 mph 1019.3mb 81f
12:00am 13 16 mph 1019.6mb 81f
Sat 07/04 11:00pm 11 13 mph 1019.4mb 81f
10:00pm 11 13 mph 1018.4mb 80f
8:00pm 11 13 mph 1019.5mb 76f
6:00pm 18 22 mph 1017.9mb 83f
4:00pm 13 18 mph 1017.9mb 83f
3:00pm 11
mph
1018.2mb 84f
2:00pm 11 13 mph 1018.9mb 83f
1:00pm 11 13 mph 1019.2mb 83f
12:00pm 9 13 mph 1019mb 83f
10:00am 4 7 mph 1018.5mb 83f
9:00am 4 7 mph 1018.6mb 82f
8:00am 16 18 mph 1018.4mb 81f
7:00am 11 16 mph 1017.6mb 82f
6:00am 16 18 mph 1017.2mb 82f
5:00am 16 18 mph 1017mb 83f
4:00am 20 22 mph 1016.5mb 82f
2:00am 22 27 mph 1016.5mb 82f
1:00am 25 27 mph 1016.6mb 82f
12:00am 22 27 mph 1016.9mb 83f
Fri 07/03 11:00pm 22 25 mph 1016.6mb 82f
10:00pm 18 20 mph 1015.9mb 82f
9:00pm 16 18 mph 1015.7mb 82f
8:00pm 11 13 mph 1015.8mb 82f
7:00pm 9 11 mph 1016mb 83f
6:00pm 11 13 mph 1015.8mb 84f
4:00pm 4 9 mph 1016.9mb 81f
2:00pm 20 22 mph 1016mb 83f
1:00pm 16 20 mph 1016.6mb 84f
12:00pm 11 13 mph 1016.9mb 83f
11:00am 11 13 mph 1016.8mb 83f
10:00am 18 20 mph 1016.6mb 81f
9:00am 16 20 mph 1017mb 80f
7:00am 20 25 mph 1016.4mb 79f
6:00am 22 27 mph 1016mb 79f
5:00am 20 25 mph 1015.8mb 79f
2:00am 18 22 mph 1015.9mb 78f
1:00am 13 16 mph 1015.9mb 77f
12:00am 13 16 mph 1016mb 77f
Thu 07/02 11:00pm 11
mph
1015.9mb 76f
10:00pm 9 11 mph 1016.8mb 73f
9:00pm 20 25 mph 1017.7mb 72f
7:00pm 25 29 mph 1013.8mb 83f
6:00pm 25 29 mph 1013.7mb 83f
5:00pm 22 25 mph 1014.2mb 83f
4:00pm 20 25 mph 1014.7mb 83f
3:00pm 13 16 mph 1015.7mb 82f
2:00pm 11 13 mph 1016.4mb 81f
1:00pm 18 20 mph 1016.4mb 82f
12:00pm 13 16 mph 1016.7mb 84f